createdAt,value
2022-10-16T00:03:42.393Z,1.50
2022-10-16T00:08:35.308Z,1.98
2022-10-16T00:11:06.599Z,1.85
2022-10-16T00:13:33.991Z,2.10
2022-10-16T00:16:01.348Z,1.80
2022-10-16T00:18:28.355Z,1.92
2022-10-16T00:23:25.675Z,1.95
2022-10-16T00:26:11.700Z,1.88
2022-10-16T00:28:38.325Z,2.10
2022-10-16T00:31:08.910Z,1.80
2022-10-16T00:33:35.503Z,2.03
2022-10-16T00:36:02.765Z,1.80
2022-10-16T00:38:29.093Z,2.00
2022-10-16T00:40:55.547Z,1.83
2022-10-16T00:43:35.597Z,1.77
2022-10-16T00:46:02.569Z,1.90
2022-10-16T00:50:54.998Z,1.77
2022-10-16T00:53:22.279Z,1.88
2022-10-16T00:55:48.625Z,2.22
2022-10-16T00:58:14.892Z,2.03
2022-10-16T01:00:41.209Z,1.70
2022-10-16T01:03:23.815Z,1.98
2022-10-16T01:05:55.432Z,1.85
2022-10-16T01:08:43.801Z,2.08
2022-10-16T01:11:18.369Z,2.35
2022-10-16T01:13:47.684Z,2.15
2022-10-16T01:16:20.740Z,2.10
2022-10-16T01:18:59.361Z,2.88
2022-10-16T01:21:28.843Z,1.95
2022-10-16T01:24:09.087Z,2.30
2022-10-16T01:26:38.240Z,2.15
2022-10-16T01:29:08.402Z,2.15
2022-10-16T01:31:36.256Z,2.17
2022-10-16T01:34:08.591Z,1.95
2022-10-16T01:36:37.978Z,2.38
2022-10-16T01:39:04.329Z,2.17
2022-10-16T01:41:45.818Z,2.15
2022-10-16T01:44:14.513Z,2.20
2022-10-16T01:46:42.185Z,2.70
2022-10-16T01:49:09.933Z,2.58
2022-10-16T01:51:36.745Z,2.20
2022-10-16T01:54:03.445Z,2.30
2022-10-16T01:56:30.268Z,2.30
2022-10-16T01:58:58.810Z,2.17
2022-10-16T02:01:27.096Z,4.28
2022-10-16T02:03:54.850Z,2.80
2022-10-16T02:06:21.238Z,3.30
2022-10-16T02:08:47.714Z,2.70
2022-10-16T02:11:14.100Z,3.25
2022-10-16T02:13:46.205Z,2.22
2022-10-16T02:16:13.419Z,2.33
2022-10-16T02:18:39.916Z,1.92
2022-10-16T02:21:17.992Z,2.40
2022-10-16T02:24:07.543Z,2.85
2022-10-16T02:26:40.400Z,2.40
2022-10-16T02:29:09.956Z,2.40
2022-10-16T02:31:38.870Z,2.13
2022-10-16T02:34:06.019Z,2.50
2022-10-16T02:36:33.133Z,2.20
2022-10-16T02:39:01.278Z,2.28
2022-10-16T02:41:28.388Z,2.40
2022-10-16T02:43:55.978Z,2.35
2022-10-16T02:46:22.456Z,2.55
2022-10-16T02:48:48.745Z,2.72
2022-10-16T02:51:15.002Z,2.55
2022-10-16T02:53:41.257Z,2.50
2022-10-16T02:56:07.671Z,2.30
2022-10-16T02:58:33.958Z,3.20
2022-10-16T03:01:00.267Z,3.33
2022-10-16T03:03:26.533Z,2.35
2022-10-16T03:05:52.769Z,2.08
2022-10-16T03:08:24.173Z,1.92
2022-10-16T03:10:51.198Z,2.15
2022-10-16T03:15:44.465Z,1.85
2022-10-16T03:18:10.714Z,2.22
2022-10-16T03:20:37.109Z,2.50
2022-10-16T03:23:03.572Z,2.17
2022-10-16T03:25:29.838Z,1.73
2022-10-16T03:27:56.060Z,2.08
2022-10-16T03:30:22.301Z,2.78
2022-10-16T03:32:48.564Z,3.22
2022-10-16T03:35:14.792Z,2.20
2022-10-16T03:37:41.045Z,2.13
2022-10-16T03:40:07.557Z,2.42
2022-10-16T03:42:33.780Z,2.92
2022-10-16T03:45:00.033Z,2.17
2022-10-16T03:47:26.512Z,2.20
2022-10-16T03:49:52.856Z,2.40
2022-10-16T03:54:50.270Z,2.63
2022-10-16T03:57:16.525Z,2.75
2022-10-16T03:59:42.782Z,2.50
2022-10-16T04:02:09.039Z,2.55
2022-10-16T04:04:35.256Z,2.70
2022-10-16T04:07:01.523Z,2.47
2022-10-16T04:09:28.169Z,2.78
2022-10-16T04:11:54.447Z,2.80
2022-10-16T04:14:20.684Z,2.17
2022-10-16T04:16:46.989Z,2.47
2022-10-16T04:19:13.292Z,2.22
2022-10-16T04:21:39.545Z,2.75
2022-10-16T04:24:05.800Z,2.70
2022-10-16T04:26:32.049Z,2.17
2022-10-16T04:28:58.359Z,2.58
2022-10-16T04:31:24.664Z,2.58
2022-10-16T04:33:50.958Z,2.22
2022-10-16T04:36:17.278Z,2.58
2022-10-16T04:38:43.500Z,2.80
2022-10-16T04:41:09.725Z,2.03
2022-10-16T04:43:36.236Z,2.75
2022-10-16T04:46:02.764Z,2.65
2022-10-16T04:48:29.040Z,2.28
2022-10-16T04:50:55.418Z,4.35
2022-10-16T04:53:21.677Z,3.63
2022-10-16T04:55:47.948Z,3.17
2022-10-16T04:58:14.190Z,2.90
2022-10-16T05:00:40.606Z,2.08
2022-10-16T05:03:09.502Z,2.40
2022-10-16T05:05:36.868Z,2.47
2022-10-16T05:08:03.234Z,2.90
2022-10-16T05:10:29.639Z,2.72
2022-10-16T05:12:55.929Z,2.42
2022-10-16T05:15:22.214Z,2.67
2022-10-16T05:17:48.465Z,2.10
2022-10-16T05:20:14.796Z,2.60
2022-10-16T05:22:41.065Z,2.05
2022-10-16T05:25:07.560Z,2.50
2022-10-16T05:27:33.826Z,2.28
2022-10-16T05:30:00.086Z,2.35
2022-10-16T05:32:26.363Z,2.50
2022-10-16T05:34:52.918Z,2.83
2022-10-16T05:37:19.166Z,2.72
2022-10-16T05:39:45.412Z,2.67
2022-10-16T05:42:11.803Z,2.83
2022-10-16T05:44:38.110Z,2.47
2022-10-16T05:47:04.425Z,4.82
2022-10-16T05:49:30.802Z,3.60
2022-10-16T05:51:57.109Z,3.33
2022-10-16T05:54:23.379Z,2.90
2022-10-16T05:56:49.637Z,4.78
2022-10-16T05:59:16.045Z,2.92
2022-10-16T06:01:42.661Z,3.15
2022-10-16T06:04:09.311Z,4.97
2022-10-16T06:06:37.208Z,3.92
2022-10-16T06:09:03.955Z,3.05
2022-10-16T06:11:31.437Z,5.65
2022-10-16T06:13:58.646Z,4.70
2022-10-16T06:16:26.022Z,3.10
2022-10-16T06:18:53.188Z,3.22
2022-10-16T06:21:21.159Z,2.80
2022-10-16T06:23:47.835Z,2.35
2022-10-16T06:26:15.189Z,2.55
2022-10-16T06:28:41.854Z,4.40
2022-10-16T06:31:09.022Z,2.50
2022-10-16T06:33:35.874Z,2.65
2022-10-16T06:36:06.651Z,2.83
2022-10-16T06:38:32.975Z,3.80
2022-10-16T06:40:59.683Z,3.53
2022-10-16T06:43:26.446Z,4.40
2022-10-16T06:45:56.529Z,3.97
2022-10-16T06:48:23.317Z,2.90
2022-10-16T06:51:03.080Z,2.58
2022-10-16T06:53:36.041Z,4.32
2022-10-16T06:56:11.389Z,2.60
2022-10-16T06:58:37.725Z,3.33
2022-10-16T07:01:04.218Z,3.00
2022-10-16T07:03:30.476Z,3.58
2022-10-16T07:05:57.229Z,6.00
2022-10-16T07:08:23.737Z,7.07
2022-10-16T07:10:58.431Z,2.70
2022-10-16T07:13:24.674Z,3.50
2022-10-16T07:15:50.903Z,2.85
2022-10-16T07:18:17.182Z,3.70
2022-10-16T07:20:43.542Z,4.38
2022-10-16T07:23:09.806Z,5.68
2022-10-16T07:25:36.034Z,7.63
2022-10-16T07:28:02.367Z,7.45
2022-10-16T07:30:28.615Z,5.53
2022-10-16T07:32:54.877Z,6.88
2022-10-16T07:35:21.096Z,6.57
2022-10-16T07:37:47.485Z,3.83
2022-10-16T07:40:14.020Z,3.28
2022-10-16T07:42:40.278Z,2.70
2022-10-16T07:45:06.849Z,2.67
2022-10-16T07:47:33.085Z,2.97
2022-10-16T07:49:59.334Z,3.28
2022-10-16T07:52:25.616Z,3.25
2022-10-16T07:54:51.883Z,2.90
2022-10-16T07:57:20.338Z,4.20
2022-10-16T07:59:47.078Z,3.63
2022-10-16T08:02:13.377Z,2.85
2022-10-16T08:04:39.618Z,2.70
2022-10-16T08:07:07.338Z,2.78
2022-10-16T08:09:33.587Z,2.20
2022-10-16T08:12:02.260Z,3.05
2022-10-16T08:14:28.826Z,2.25
2022-10-16T08:16:55.070Z,3.42
2022-10-16T08:19:21.342Z,3.42
2022-10-16T08:21:50.388Z,2.92
2022-10-16T08:24:16.626Z,2.97
2022-10-16T08:26:42.930Z,3.53
2022-10-16T08:29:09.413Z,6.03
2022-10-16T08:31:35.760Z,4.13
2022-10-16T08:34:02.046Z,3.10
2022-10-16T08:36:28.272Z,3.47
2022-10-16T08:38:55.174Z,3.13
2022-10-16T08:41:50.732Z,3.50
2022-10-16T08:44:16.956Z,3.08
2022-10-16T08:47:01.868Z,3.58
2022-10-16T08:49:28.327Z,2.22
2022-10-16T08:51:57.042Z,2.50
2022-10-16T08:54:23.257Z,2.42
2022-10-16T08:56:49.569Z,2.38
2022-10-16T08:59:17.160Z,2.50
2022-10-16T09:01:47.395Z,2.13
2022-10-16T09:04:32.125Z,2.42
2022-10-16T09:07:18.674Z,2.40
2022-10-16T09:10:17.417Z,2.28
2022-10-16T09:15:15.745Z,1.83
2022-10-16T09:18:01.195Z,2.30
2022-10-16T09:20:43.340Z,2.33
2022-10-16T09:23:18.108Z,2.00
2022-10-16T09:25:48.850Z,2.00
2022-10-16T09:28:15.793Z,2.10
2022-10-16T09:33:09.984Z,1.88
2022-10-16T09:35:38.768Z,2.30
2022-10-16T09:38:05.148Z,2.00
2022-10-16T09:40:32.511Z,1.73
2022-10-16T09:43:02.902Z,2.20
2022-10-16T09:45:29.226Z,1.85
2022-10-16T09:47:57.789Z,1.67
2022-10-16T09:50:24.741Z,2.10
2022-10-16T09:52:51.238Z,1.90
2022-10-16T09:55:18.690Z,1.52
2022-10-16T09:57:51.318Z,1.85
2022-10-16T10:00:18.720Z,1.90
2022-10-16T10:02:45.357Z,1.60
2022-10-16T10:05:23.644Z,2.05
2022-10-16T10:07:56.219Z,1.98
2022-10-16T10:10:23.953Z,2.00
2022-10-16T10:12:50.772Z,1.80
2022-10-16T10:17:52.753Z,1.58
2022-10-16T10:20:24.222Z,1.63
2022-10-16T10:22:50.556Z,2.05
2022-10-16T10:25:21.953Z,2.28
2022-10-16T10:27:54.431Z,1.98
2022-10-16T10:30:23.649Z,1.90
2022-10-16T10:32:59.064Z,2.17
2022-10-16T10:35:29.632Z,2.50
2022-10-16T10:38:07.749Z,1.88
2022-10-16T10:40:46.285Z,1.55
2022-10-16T10:43:12.564Z,2.15
2022-10-16T10:45:47.155Z,2.00
2022-10-16T10:48:16.264Z,1.65
2022-10-16T10:50:46.483Z,1.98
2022-10-16T10:53:19.335Z,2.03
2022-10-16T10:55:48.779Z,1.60
2022-10-16T10:58:35.943Z,2.08
2022-10-16T11:01:14.300Z,1.60
2022-10-16T11:04:00.241Z,1.55
2022-10-16T11:06:31.940Z,1.95
2022-10-16T11:09:04.496Z,1.40
2022-10-16T11:11:33.632Z,1.63
2022-10-16T11:14:07.095Z,1.52
2022-10-16T11:16:39.946Z,1.52
2022-10-16T11:19:25.465Z,1.50
2022-10-16T11:22:03.730Z,1.48
2022-10-16T11:24:29.997Z,0.95
2022-10-16T11:26:56.630Z,1.40
2022-10-16T11:31:51.263Z,1.50
2022-10-16T11:34:27.385Z,1.38
2022-10-16T11:37:06.592Z,1.70
2022-10-16T11:39:33.630Z,1.65
2022-10-16T11:42:02.749Z,1.77
2022-10-16T11:44:35.043Z,1.30
2022-10-16T11:47:28.470Z,2.00
2022-10-16T11:49:48.430Z,1.33
2022-10-16T11:52:35.276Z,1.40
2022-10-16T11:56:18.373Z,1.60
2022-10-16T11:59:03.208Z,1.77
2022-10-16T12:01:32.640Z,1.42
2022-10-16T12:04:04.810Z,1.88
2022-10-16T12:06:34.965Z,1.80
2022-10-16T12:09:01.630Z,1.42
2022-10-16T12:11:30.608Z,1.52
2022-10-16T12:14:08.275Z,1.50
2022-10-16T12:16:34.542Z,2.10
2022-10-16T12:19:11.744Z,1.58
2022-10-16T12:21:38.015Z,1.65
2022-10-16T12:24:08.002Z,1.77
2022-10-16T12:26:35.421Z,2.50
2022-10-16T12:29:14.306Z,1.85
2022-10-16T12:31:49.764Z,2.40
2022-10-16T12:34:29.096Z,1.98
2022-10-16T12:36:56.580Z,2.25
2022-10-16T12:39:23.952Z,1.65
2022-10-16T12:42:01.170Z,1.50
2022-10-16T12:44:32.391Z,1.90
2022-10-16T12:46:58.628Z,2.17
2022-10-16T12:49:32.716Z,1.38
2022-10-16T12:51:59.105Z,1.50
2022-10-16T12:54:38.413Z,2.15
2022-10-16T12:57:19.292Z,2.03
2022-10-16T12:59:51.361Z,1.90
2022-10-16T13:02:36.620Z,1.80
2022-10-16T13:05:21.709Z,1.80
2022-10-16T13:07:58.372Z,1.85
2022-10-16T13:10:39.008Z,1.55
2022-10-16T13:13:21.148Z,2.30
2022-10-16T13:16:07.304Z,2.10
2022-10-16T13:18:43.186Z,1.65
2022-10-16T13:21:12.455Z,2.20
2022-10-16T13:23:38.780Z,2.30
2022-10-16T13:26:12.180Z,2.65
2022-10-16T13:28:39.170Z,2.20
2022-10-16T13:31:05.730Z,2.13
2022-10-16T13:33:43.058Z,2.65
2022-10-16T13:38:36.240Z,3.30
2022-10-16T13:43:39.671Z,3.90
2022-10-16T13:46:19.390Z,3.47
2022-10-16T13:48:46.220Z,2.63
2022-10-16T13:53:38.788Z,2.75
2022-10-16T13:56:06.415Z,7.68
2022-10-16T13:58:32.737Z,4.95
2022-10-16T14:00:59.970Z,11.10
2022-10-16T14:03:27.131Z,7.07
2022-10-16T14:05:55.147Z,4.60
2022-10-16T14:08:22.292Z,8.63
2022-10-16T14:10:50.492Z,14.40
2022-10-16T14:13:19.346Z,5.05
2022-10-16T14:15:48.545Z,3.60
2022-10-16T14:18:19.134Z,4.20
2022-10-16T14:20:45.425Z,9.25
2022-10-16T14:23:29.473Z,4.45
2022-10-16T14:26:06.150Z,3.28
2022-10-16T14:28:32.479Z,3.00
2022-10-16T14:30:59.898Z,2.67
2022-10-16T14:33:34.420Z,2.70
2022-10-16T14:36:05.799Z,2.40
2022-10-16T14:38:32.651Z,2.55
2022-10-16T14:43:36.900Z,3.00
2022-10-16T14:46:12.292Z,2.63
2022-10-16T14:48:41.588Z,3.33
2022-10-16T14:51:11.451Z,4.60
2022-10-16T14:53:37.693Z,2.75
2022-10-16T14:56:08.534Z,2.55
2022-10-16T14:58:35.885Z,2.38
2022-10-16T15:01:02.135Z,2.35
2022-10-16T15:03:28.422Z,2.42
2022-10-16T15:05:54.735Z,2.67
2022-10-16T15:08:20.976Z,1.88
2022-10-16T15:10:47.220Z,1.92
2022-10-16T15:13:14.885Z,1.80
2022-10-16T15:15:45.424Z,2.15
2022-10-16T15:18:11.682Z,2.08
2022-10-16T15:20:39.127Z,2.10
2022-10-16T15:23:18.696Z,1.83
2022-10-16T15:25:49.564Z,1.85
2022-10-16T15:28:16.661Z,1.95
2022-10-16T15:30:43.369Z,2.60
2022-10-16T15:33:14.654Z,2.40
2022-10-16T15:35:40.936Z,2.70
2022-10-16T15:38:07.228Z,2.67
2022-10-16T15:40:33.521Z,4.05
2022-10-16T15:42:59.732Z,4.13
2022-10-16T15:45:25.996Z,2.30
2022-10-16T15:47:52.225Z,2.70
2022-10-16T15:50:18.541Z,2.33
2022-10-16T15:52:45.073Z,2.03
2022-10-16T15:55:12.713Z,2.30
2022-10-16T15:57:40.397Z,2.72
2022-10-16T16:00:10.522Z,2.55
2022-10-16T16:02:37.353Z,2.28
2022-10-16T16:05:04.504Z,2.20
2022-10-16T16:07:33.509Z,2.20
2022-10-16T16:09:59.820Z,2.78
2022-10-16T16:12:26.224Z,2.72
2022-10-16T16:14:52.644Z,2.58
2022-10-16T16:17:19.133Z,2.85
2022-10-16T16:19:46.567Z,2.53
2022-10-16T16:22:13.486Z,2.13
2022-10-16T16:24:39.810Z,2.88
2022-10-16T16:27:06.037Z,3.60
2022-10-16T16:29:32.310Z,2.45
2022-10-16T16:32:00.109Z,2.67
2022-10-16T16:34:27.465Z,2.30
2022-10-16T16:36:53.925Z,3.83
2022-10-16T16:39:20.244Z,3.03
2022-10-16T16:41:46.733Z,2.00
2022-10-16T16:44:13.438Z,2.65
2022-10-16T16:46:40.501Z,2.47
2022-10-16T16:49:07.487Z,2.47
2022-10-16T16:54:03.249Z,2.20
2022-10-16T16:56:29.516Z,2.72
2022-10-16T16:58:56.693Z,2.25
2022-10-16T17:01:24.559Z,2.70
2022-10-16T17:03:52.800Z,2.72
2022-10-16T17:06:20.930Z,2.58
2022-10-16T17:08:47.702Z,2.40
2022-10-16T17:11:18.542Z,2.72
2022-10-16T17:13:45.158Z,2.20
2022-10-16T17:16:11.679Z,2.50
2022-10-16T17:18:38.086Z,3.53
2022-10-16T17:21:05.765Z,3.05
2022-10-16T17:23:32.134Z,4.05
2022-10-16T17:26:03.576Z,3.63
2022-10-16T17:28:29.875Z,3.50
2022-10-16T17:30:56.386Z,3.35
2022-10-16T17:33:22.617Z,3.60
2022-10-16T17:35:48.840Z,4.15
2022-10-16T17:38:16.651Z,2.97
2022-10-16T17:40:43.822Z,5.97
2022-10-16T17:43:10.065Z,6.95
2022-10-16T17:45:37.225Z,6.60
2022-10-16T17:48:03.539Z,6.28
2022-10-16T17:50:29.859Z,8.93
2022-10-16T17:52:56.088Z,7.53
2022-10-16T17:55:26.363Z,7.00
2022-10-16T17:57:53.558Z,6.95
2022-10-16T18:00:20.125Z,9.52
2022-10-16T18:02:48.597Z,6.07
2022-10-16T18:05:14.898Z,5.85
2022-10-16T18:10:12.603Z,4.38
2022-10-16T18:15:05.986Z,4.25
2022-10-16T18:17:37.322Z,4.38
2022-10-16T18:20:07.073Z,4.57
2022-10-16T18:22:35.840Z,4.38
2022-10-16T18:25:06.174Z,4.10
2022-10-16T18:27:32.862Z,3.70
2022-10-16T18:29:59.948Z,4.50
2022-10-16T18:32:27.289Z,4.38
2022-10-16T18:34:54.354Z,3.90
2022-10-16T18:37:20.963Z,3.00
2022-10-16T18:39:48.582Z,3.92
2022-10-16T18:42:18.155Z,4.85
2022-10-16T18:44:46.837Z,4.60
2022-10-16T18:47:15.285Z,4.63
2022-10-16T18:49:41.561Z,4.68
2022-10-16T18:52:07.836Z,4.93
2022-10-16T18:54:34.088Z,4.82
2022-10-16T18:57:00.317Z,5.25
2022-10-16T18:59:26.680Z,5.00
2022-10-16T19:01:53.003Z,5.15
2022-10-16T19:04:20.013Z,7.15
2022-10-16T19:09:13.097Z,6.10
2022-10-16T19:14:08.144Z,5.63
2022-10-16T19:16:35.174Z,6.20
2022-10-16T19:21:28.391Z,5.63
2022-10-16T19:23:55.574Z,5.90
2022-10-16T19:26:22.285Z,5.30
2022-10-16T19:28:48.606Z,5.50
2022-10-16T19:31:16.576Z,6.70
2022-10-16T19:33:42.865Z,6.07
2022-10-16T19:36:09.221Z,5.93
2022-10-16T19:38:35.498Z,7.03
2022-10-16T19:41:06.161Z,6.22
2022-10-16T19:43:32.391Z,6.25
2022-10-16T19:46:02.411Z,6.80
2022-10-16T19:48:28.683Z,7.00
2022-10-16T19:50:54.977Z,7.45
2022-10-16T19:53:21.230Z,7.82
2022-10-16T19:55:47.461Z,7.68
2022-10-16T19:58:13.685Z,7.32
2022-10-16T20:00:43.013Z,7.90
2022-10-16T20:03:09.318Z,7.40
2022-10-16T20:05:35.541Z,7.97
2022-10-16T20:08:01.841Z,7.50
2022-10-16T20:10:28.064Z,7.60
2022-10-16T20:12:54.336Z,7.63
2022-10-16T20:15:20.562Z,7.20
2022-10-16T20:17:46.799Z,7.40
2022-10-16T20:20:13.052Z,7.70
2022-10-16T20:22:39.533Z,6.97
2022-10-16T20:25:08.525Z,7.22
2022-10-16T20:27:36.456Z,7.13
2022-10-16T20:30:02.828Z,6.70
2022-10-16T20:32:29.741Z,7.25
2022-10-16T20:34:55.975Z,5.95
2022-10-16T20:37:22.338Z,6.15
2022-10-16T20:39:48.601Z,6.25
2022-10-16T20:42:14.836Z,6.63
2022-10-16T20:44:41.066Z,7.15
2022-10-16T20:47:07.302Z,6.40
2022-10-16T20:49:40.568Z,5.97
2022-10-16T20:52:07.429Z,6.30
2022-10-16T20:54:33.766Z,7.38
2022-10-16T20:57:00.002Z,8.88
2022-10-16T20:59:26.277Z,8.00
2022-10-16T21:01:52.662Z,7.80
2022-10-16T21:04:18.982Z,6.55
2022-10-16T21:06:45.305Z,8.02
2022-10-16T21:09:11.605Z,6.63
2022-10-16T21:11:37.998Z,6.25
2022-10-16T21:14:05.264Z,6.47
2022-10-16T21:16:31.782Z,5.70
2022-10-16T21:18:58.073Z,5.80
2022-10-16T21:21:25.742Z,6.00
2022-10-16T21:23:52.497Z,7.00
2022-10-16T21:26:25.935Z,7.43
2022-10-16T21:28:59.477Z,10.07
2022-10-16T21:31:26.069Z,10.90
2022-10-16T21:33:52.853Z,10.30
2022-10-16T21:36:20.684Z,6.70
2022-10-16T21:41:20.209Z,4.78
2022-10-16T21:43:46.627Z,4.95
2022-10-16T21:46:13.011Z,5.03
2022-10-16T21:48:39.453Z,5.85
2022-10-16T21:51:06.084Z,5.32
2022-10-16T21:53:32.375Z,4.43
2022-10-16T21:55:58.611Z,4.55
2022-10-16T21:58:24.921Z,4.50
2022-10-16T22:00:51.261Z,5.45
2022-10-16T22:03:17.619Z,6.28
2022-10-16T22:05:43.915Z,8.02
2022-10-16T22:08:10.168Z,8.60
2022-10-16T22:10:36.401Z,8.00
2022-10-16T22:13:02.656Z,6.03
2022-10-16T22:15:28.891Z,6.07
2022-10-16T22:17:55.135Z,8.60
2022-10-16T22:20:21.367Z,8.00
2022-10-16T22:22:47.670Z,7.70
2022-10-16T22:25:13.935Z,6.20
2022-10-16T22:27:40.193Z,4.60
2022-10-16T22:30:06.778Z,7.00
2022-10-16T22:32:33.381Z,7.50
2022-10-16T22:34:59.626Z,5.45
2022-10-16T22:37:26.083Z,5.90
2022-10-16T22:39:52.687Z,5.47
2022-10-16T22:42:18.933Z,5.05
2022-10-16T22:44:45.244Z,4.97
2022-10-16T22:47:11.535Z,6.18
2022-10-16T22:49:37.795Z,6.40
2022-10-16T22:52:04.142Z,5.05
2022-10-16T22:54:30.410Z,5.55
2022-10-16T22:56:56.653Z,5.35
2022-10-16T22:59:22.907Z,5.78
2022-10-16T23:01:49.158Z,5.32
2022-10-16T23:04:15.425Z,5.85
2022-10-16T23:06:41.721Z,6.07
2022-10-16T23:09:07.960Z,5.25
2022-10-16T23:11:34.194Z,5.20
2022-10-16T23:14:00.426Z,4.53
2022-10-16T23:16:26.700Z,5.40
2022-10-16T23:18:53.293Z,4.75
2022-10-16T23:21:21.786Z,5.30
2022-10-16T23:23:48.121Z,4.68
2022-10-16T23:26:18.730Z,5.30
2022-10-16T23:28:45.088Z,4.72
2022-10-16T23:31:12.009Z,6.68
2022-10-16T23:36:05.406Z,5.57
2022-10-16T23:38:31.668Z,5.72
2022-10-16T23:40:57.907Z,5.90
2022-10-16T23:43:24.137Z,5.13
2022-10-16T23:45:50.416Z,5.55
2022-10-16T23:48:16.714Z,5.00
2022-10-16T23:50:42.965Z,5.43
2022-10-16T23:53:10.202Z,5.70
2022-10-16T23:55:36.780Z,5.25
2022-10-16T23:58:03.015Z,5.53
